createdAt,value
2019-04-05T00:01:27.464Z,100.80
2019-04-05T00:06:33.623Z,99.90
2019-04-05T00:11:39.723Z,120.00
2019-04-05T00:16:45.839Z,128.27
2019-04-05T00:21:52.000Z,131.83
2019-04-05T00:26:58.271Z,141.90
2019-04-05T00:32:04.403Z,139.73
2019-04-05T00:37:11.616Z,133.07
2019-04-05T00:42:17.703Z,134.63
2019-04-05T00:47:23.789Z,127.50
2019-04-05T00:52:29.835Z,128.73
2019-04-05T00:57:36.121Z,138.80
2019-04-05T01:02:42.199Z,130.53
2019-04-05T01:07:48.405Z,130.77
2019-04-05T01:12:54.463Z,138.50
2019-04-05T01:18:01.805Z,137.53
2019-04-05T01:23:08.334Z,134.67
2019-04-05T01:28:15.948Z,138.77
2019-04-05T01:33:22.024Z,145.40
2019-04-05T01:38:28.174Z,140.20
2019-04-05T01:43:34.346Z,132.10
2019-04-05T01:48:41.590Z,132.87
2019-04-05T01:53:47.634Z,136.97
2019-04-05T01:58:53.731Z,143.17
2019-04-05T02:04:00.826Z,140.00
2019-04-05T02:09:11.023Z,139.23
2019-04-05T02:14:17.288Z,139.47
2019-04-05T02:19:23.587Z,154.03
2019-04-05T02:24:29.845Z,146.27
2019-04-05T02:29:36.068Z,152.83
2019-04-05T02:34:42.227Z,144.40
2019-04-05T02:39:48.289Z,144.20
2019-04-05T02:44:55.374Z,143.90
2019-04-05T02:50:01.555Z,147.53
2019-04-05T02:55:07.998Z,153.03
2019-04-05T03:00:14.587Z,145.00
2019-04-05T03:05:22.616Z,142.20
2019-04-05T03:10:57.210Z,146.70
2019-04-05T03:16:06.682Z,132.87
2019-04-05T03:21:14.925Z,144.87
2019-04-05T03:26:23.771Z,149.50
2019-04-05T03:31:30.887Z,162.97
2019-04-05T03:36:37.237Z,160.57
2019-04-05T03:41:43.519Z,155.40
2019-04-05T03:46:56.761Z,151.50
2019-04-05T03:51:57.419Z,154.57
2019-04-05T03:57:04.081Z,152.70
2019-04-05T04:02:10.271Z,143.70
2019-04-05T04:07:16.387Z,152.03
2019-04-05T04:12:23.584Z,153.23
2019-04-05T04:17:29.933Z,156.60
2019-04-05T04:22:36.226Z,153.47
2019-04-05T04:27:42.498Z,156.00
2019-04-05T04:32:48.601Z,154.27
2019-04-05T04:37:55.988Z,153.47
2019-04-05T04:43:02.611Z,149.90
2019-04-05T04:48:09.293Z,156.63
2019-04-05T04:53:15.940Z,156.03
2019-04-05T04:58:22.081Z,152.87
2019-04-05T05:03:28.873Z,155.87
2019-04-05T05:08:35.162Z,151.97
2019-04-05T05:13:41.779Z,157.67
2019-04-05T05:18:48.045Z,164.83
2019-04-05T05:23:54.217Z,167.53
2019-04-05T05:29:00.527Z,165.10
2019-04-05T05:34:06.950Z,160.07
2019-04-05T05:39:13.121Z,154.60
2019-04-05T05:44:19.288Z,163.50
2019-04-05T05:49:25.449Z,147.97
2019-04-05T05:54:31.638Z,147.93
2019-04-05T05:59:37.811Z,158.63
2019-04-05T06:04:43.881Z,148.03
2019-04-05T06:09:50.003Z,144.70
2019-04-05T06:14:56.098Z,144.40
2019-04-05T06:20:02.498Z,145.63
2019-04-05T06:25:08.686Z,138.00
2019-04-05T06:30:14.951Z,145.57
2019-04-05T06:35:21.138Z,144.17
2019-04-05T06:40:39.697Z,136.23
2019-04-05T06:45:34.914Z,129.27
2019-04-05T06:50:41.089Z,128.50
2019-04-05T06:55:47.282Z,131.30
2019-04-05T07:00:57.186Z,133.30
2019-04-05T07:06:01.093Z,130.57
2019-04-05T07:11:07.257Z,129.80
2019-04-05T07:16:13.384Z,131.23
2019-04-05T07:21:19.434Z,124.80
2019-04-05T07:26:25.506Z,123.47
2019-04-05T07:31:31.753Z,124.60
2019-04-05T07:36:37.938Z,125.77
2019-04-05T07:41:44.030Z,121.47
2019-04-05T07:46:50.135Z,121.90
2019-04-05T07:51:56.194Z,138.40
2019-04-05T07:57:02.273Z,124.17
2019-04-05T08:02:08.326Z,124.77
2019-04-05T08:07:15.006Z,131.07
2019-04-05T08:12:22.112Z,132.80
2019-04-05T08:17:28.350Z,142.43
2019-04-05T08:22:34.557Z,129.67
2019-04-05T08:27:40.627Z,136.67
2019-04-05T08:32:46.701Z,132.43
2019-04-05T08:37:52.881Z,132.57
2019-04-05T08:42:59.342Z,125.63
2019-04-05T08:48:05.447Z,118.97
2019-04-05T08:53:11.610Z,115.03
2019-04-05T08:58:17.804Z,116.63
2019-04-05T09:03:23.879Z,120.67
2019-04-05T09:08:29.954Z,113.47
2019-04-05T09:13:36.153Z,101.43
2019-04-05T09:18:42.263Z,105.37
2019-04-05T09:23:48.412Z,94.97
2019-04-05T09:28:55.622Z,96.07
2019-04-05T09:34:01.713Z,86.40
2019-04-05T09:39:15.294Z,82.23
2019-04-05T09:44:19.035Z,79.87
2019-04-05T09:49:36.143Z,77.60
2019-04-05T09:54:33.081Z,78.70
2019-04-05T09:59:39.262Z,72.92
2019-04-05T10:04:45.385Z,73.00
2019-04-05T10:09:51.457Z,65.42
2019-04-05T10:14:57.537Z,61.33
2019-04-05T10:20:03.693Z,66.60
2019-04-05T10:25:11.043Z,71.87
2019-04-05T10:30:17.427Z,64.40
2019-04-05T10:35:23.510Z,66.60
2019-04-05T10:40:29.602Z,66.02
2019-04-05T10:45:35.795Z,62.75
2019-04-05T10:50:42.005Z,63.85
2019-04-05T10:55:48.114Z,58.92
2019-04-05T11:00:54.277Z,56.20
2019-04-05T11:06:00.390Z,53.00
2019-04-05T11:11:07.627Z,54.83
2019-04-05T11:16:13.782Z,45.55
2019-04-05T11:21:20.002Z,41.08
2019-04-05T11:26:26.195Z,38.73
2019-04-05T11:31:32.270Z,37.73
2019-04-05T11:36:38.514Z,41.40
2019-04-05T11:41:44.901Z,49.45
2019-04-05T11:46:51.178Z,50.15
2019-04-05T11:51:57.349Z,48.78
2019-04-05T11:57:03.546Z,55.58
2019-04-05T12:02:46.959Z,69.25
2019-04-05T12:07:53.002Z,64.65
2019-04-05T12:12:59.253Z,71.65
2019-04-05T12:18:05.385Z,69.53
2019-04-05T12:23:11.533Z,74.47
2019-04-05T12:28:17.613Z,73.40
2019-04-05T12:33:23.872Z,71.80
2019-04-05T12:38:32.462Z,76.53
2019-04-05T12:43:39.310Z,76.63
2019-04-05T12:48:46.387Z,79.50
2019-04-05T12:53:54.439Z,71.80
2019-04-05T12:59:00.251Z,70.73
2019-04-05T13:04:06.449Z,71.50
2019-04-05T13:09:14.206Z,70.97
2019-04-05T13:14:20.371Z,73.37
2019-04-05T13:19:26.460Z,69.87
2019-04-05T13:24:32.537Z,77.67
2019-04-05T13:29:38.888Z,71.03
2019-04-05T13:34:45.133Z,70.55
2019-04-05T13:39:52.281Z,70.87
2019-04-05T13:44:58.537Z,70.42
2019-04-05T13:50:06.121Z,75.20
2019-04-05T13:55:12.440Z,72.70
2019-04-05T14:00:19.328Z,68.80
2019-04-05T14:05:25.444Z,73.67
2019-04-05T14:10:31.524Z,68.75
2019-04-05T14:15:37.678Z,72.65
2019-04-05T14:20:43.819Z,74.63
2019-04-05T14:25:50.015Z,73.27
2019-04-05T14:30:57.207Z,66.72
2019-04-05T14:36:03.301Z,67.05
2019-04-05T14:41:09.392Z,65.50
2019-04-05T14:46:15.544Z,85.75
2019-04-05T14:51:21.697Z,73.93
2019-04-05T14:56:29.187Z,70.57
2019-04-05T15:01:35.686Z,63.63
2019-04-05T15:06:41.778Z,61.83
2019-04-05T15:11:47.930Z,64.33
2019-04-05T15:16:54.119Z,66.40
2019-04-05T15:22:05.578Z,65.27
2019-04-05T15:27:07.906Z,61.60
2019-04-05T15:32:14.097Z,58.97
2019-04-05T15:37:20.157Z,65.83
2019-04-05T15:42:26.417Z,58.43
2019-04-05T15:47:32.608Z,59.70
2019-04-05T15:52:38.727Z,58.07
2019-04-05T15:57:44.830Z,60.00
2019-04-05T16:02:50.878Z,60.87
2019-04-05T16:07:57.150Z,61.67
2019-04-05T16:13:03.341Z,54.90
2019-04-05T16:18:09.426Z,160.50
2019-04-05T16:23:15.445Z,56.57
2019-04-05T16:28:21.717Z,58.90
2019-04-05T16:33:27.901Z,61.97
2019-04-05T16:38:33.956Z,58.37
2019-04-05T16:43:39.959Z,67.03
2019-04-05T16:48:46.065Z,66.20
2019-04-05T16:54:02.094Z,67.77
2019-04-05T16:59:08.253Z,69.37
2019-04-05T17:04:15.756Z,70.33
2019-04-05T17:09:22.005Z,66.97
2019-04-05T17:14:28.286Z,68.53
2019-04-05T17:19:34.362Z,74.00
2019-04-05T17:24:40.557Z,69.57
2019-04-05T17:29:46.671Z,69.90
2019-04-05T17:34:52.894Z,68.23
2019-04-05T17:39:59.058Z,68.37
2019-04-05T17:45:06.102Z,69.93
2019-04-05T17:50:12.732Z,71.13
2019-04-05T17:55:18.997Z,71.70
2019-04-05T18:00:25.456Z,70.27
2019-04-05T18:05:31.556Z,67.43
2019-04-05T18:10:37.602Z,74.27
2019-04-05T18:15:52.256Z,87.33
2019-04-05T18:20:51.937Z,73.27
2019-04-05T18:25:58.081Z,70.10
2019-04-05T18:31:04.589Z,78.50
2019-04-05T18:36:11.410Z,68.73
2019-04-05T18:41:17.647Z,74.80
2019-04-05T18:46:23.894Z,73.53
2019-04-05T18:51:30.554Z,70.57
2019-04-05T18:56:36.822Z,69.87
2019-04-05T19:01:43.191Z,70.50
2019-04-05T19:06:50.367Z,68.03
2019-04-05T19:11:56.602Z,70.07
2019-04-05T19:17:03.051Z,72.50
2019-04-05T19:22:09.274Z,75.23
2019-04-05T19:27:15.396Z,69.40
2019-04-05T19:52:53.692Z,72.57
2019-04-05T19:57:59.814Z,78.07
2019-04-05T20:03:06.229Z,74.20
2019-04-05T20:08:12.205Z,66.73
2019-04-05T20:13:18.398Z,66.43
2019-04-05T20:18:24.590Z,70.80
2019-04-05T20:23:30.898Z,69.43
2019-04-05T20:28:36.949Z,67.50
2019-04-05T20:33:43.235Z,68.07
2019-04-05T20:38:50.437Z,72.07
2019-04-05T20:43:56.619Z,74.37
2019-04-05T20:49:02.669Z,70.07
2019-04-05T20:54:08.669Z,68.20
2019-04-05T20:59:14.811Z,65.47
2019-04-05T21:04:21.021Z,67.57
2019-04-05T21:09:27.102Z,69.47
2019-04-05T21:14:33.198Z,67.60
2019-04-05T21:19:39.349Z,66.63
2019-04-05T21:24:45.466Z,69.00
2019-04-05T21:29:51.818Z,65.37
2019-04-05T21:34:58.021Z,67.13
2019-04-05T21:40:04.184Z,68.80
2019-04-05T21:45:10.278Z,71.53
2019-04-05T21:50:16.571Z,69.83
2019-04-05T21:55:22.634Z,73.73
2019-04-05T22:00:33.840Z,73.73
2019-04-05T22:05:41.326Z,76.63
2019-04-05T22:10:47.499Z,71.63
2019-04-05T22:15:53.567Z,74.70
2019-04-05T22:21:00.166Z,68.23
2019-04-05T22:26:06.214Z,70.63
2019-04-05T22:31:12.405Z,67.07
2019-04-05T22:36:18.476Z,68.17
2019-04-05T22:41:24.613Z,66.20
2019-04-05T22:46:30.761Z,65.73
2019-04-05T22:51:36.959Z,66.27
2019-04-05T22:56:43.217Z,68.43
2019-04-05T23:01:50.221Z,65.70
2019-04-05T23:06:56.495Z,63.20
2019-04-05T23:12:02.683Z,62.30
2019-04-05T23:17:08.745Z,65.70
2019-04-05T23:22:14.859Z,63.10
2019-04-05T23:27:20.906Z,64.37
2019-04-05T23:32:27.017Z,63.50
2019-04-05T23:37:33.313Z,59.00
2019-04-05T23:42:39.534Z,65.90
2019-04-05T23:47:45.717Z,64.57
2019-04-05T23:52:51.910Z,57.90
2019-04-05T23:57:59.656Z,57.80
